Portada
METAR-TAF:

METAR-TAF

Aeroports :

Kerman, Iran

latitud: 30-15N, longitud: 056-58E, altitud: 1748 m

Observació

L'informe es va fer fa 45 minuts, a les 22:00 UTC
Vent 4 kt del Sud-Est
Temperatura -3°C
Humitat 12%
Pressió 1024 hPa
Visibilitat 10 km o més
sense núvols per sota de 1500 mi sense presència de cumulonimbus.

METAR: OIKK 132200Z 14004KT CAVOK M03/M28 Q1024 A3025

Hora: 02:15 (22:45 UTC)

Pronòstic

L'informe es va fer fa 5 hores i 15 minuts, a les 17:30 UTC
Pronòstic vàlid del 13 a les 18 UTC al 14 a les 24 UTC
Vent 8 kt del Oest/Nord-Oest
Visibilitat 10 km o més
sense núvols per sota de 1500 mi sense presència de cumulonimbus.

TAF: OIKK 131730Z 1318/1424 30008KT CAVOK

Observacions i pronòstics meteorològics de més de 4000 aeroports (METAR i TAF).

Les estacions disponibles són els punts grocs i vermells al mapa.

Posi el ratolí al punt desitjat per veure el nom de l'estació.

Feu clic per veure les observacions i els pronòstics meteorològics.

Per canviar el mapa: feu clic els botons verds amb una creu de color negre per apropar; al botó verd amb un guió per allunyar la imatge; o en les fletxes verdes per a mapes adjacents.


METAR-TAF: